createdAt,value
2023-05-24T00:02:27.292Z,13.41
2023-05-24T00:05:00.905Z,13.06
2023-05-24T00:07:29.213Z,13.18
2023-05-24T00:09:57.242Z,13.18
2023-05-24T00:12:25.783Z,13.20
2023-05-24T00:14:53.629Z,13.30
2023-05-24T00:17:24.558Z,13.31
2023-05-24T00:19:53.506Z,13.41
2023-05-24T00:22:23.104Z,13.66
2023-05-24T00:24:50.970Z,13.79
2023-05-24T00:27:19.081Z,13.53
2023-05-24T00:29:46.965Z,13.27
2023-05-24T00:32:14.987Z,13.23
2023-05-24T00:34:43.092Z,13.64
2023-05-24T00:37:13.027Z,13.56
2023-05-24T00:39:42.423Z,13.54
2023-05-24T00:42:11.105Z,13.51
2023-05-24T00:44:39.154Z,12.92
2023-05-24T00:47:07.699Z,12.75
2023-05-24T00:49:35.994Z,12.75
2023-05-24T00:52:04.364Z,12.65
2023-05-24T00:54:33.464Z,12.61
2023-05-24T00:57:02.726Z,12.67
2023-05-24T00:59:31.194Z,12.73
2023-05-24T01:01:59.251Z,12.74
2023-05-24T01:04:28.192Z,12.68
2023-05-24T01:07:06.066Z,12.74
2023-05-24T01:09:35.744Z,12.72
2023-05-24T01:12:16.655Z,12.53
2023-05-24T01:14:47.993Z,12.44
2023-05-24T01:17:19.595Z,12.35
2023-05-24T01:19:52.467Z,12.37
2023-05-24T01:22:42.329Z,12.47
2023-05-24T01:25:14.632Z,12.32
2023-05-24T01:27:44.763Z,12.05
2023-05-24T01:30:13.162Z,12.11
2023-05-24T01:32:44.097Z,12.25
2023-05-24T01:35:14.808Z,12.51
2023-05-24T01:37:42.673Z,12.16
2023-05-24T01:40:11.350Z,12.06
2023-05-24T01:42:45.748Z,12.28
2023-05-24T01:45:17.625Z,12.31
2023-05-24T01:47:52.819Z,12.47
2023-05-24T01:50:25.722Z,12.32
2023-05-24T01:52:54.754Z,12.30
2023-05-24T01:55:22.855Z,12.20
2023-05-24T01:57:51.894Z,12.30
2023-05-24T02:00:22.490Z,12.26
2023-05-24T02:02:50.887Z,12.63
2023-05-24T02:05:20.125Z,12.57
2023-05-24T02:07:48.603Z,12.97
2023-05-24T02:10:16.650Z,12.86
2023-05-24T02:12:45.327Z,12.99
2023-05-24T02:15:15.128Z,12.84
2023-05-24T02:17:46.128Z,12.52
2023-05-24T02:20:14.685Z,12.42
2023-05-24T02:22:42.705Z,12.71
2023-05-24T02:25:10.549Z,12.75
2023-05-24T02:27:38.315Z,12.74
2023-05-24T02:30:07.107Z,12.69
2023-05-24T02:32:35.178Z,12.82
2023-05-24T02:35:05.305Z,12.54
2023-05-24T02:37:33.171Z,12.54
2023-05-24T02:40:01.817Z,12.84
2023-05-24T02:42:29.816Z,12.99
2023-05-24T02:44:58.008Z,12.93
2023-05-24T02:47:27.335Z,12.76
2023-05-24T02:49:55.340Z,12.74
2023-05-24T02:52:24.478Z,12.63
2023-05-24T02:54:52.221Z,12.69
2023-05-24T02:57:25.253Z,13.10
2023-05-24T02:59:54.339Z,12.81
2023-05-24T03:02:23.551Z,12.64
2023-05-24T03:04:51.588Z,12.42
2023-05-24T03:07:20.598Z,12.40
2023-05-24T03:09:49.999Z,12.38
2023-05-24T03:12:18.783Z,12.71
2023-05-24T03:14:46.385Z,12.78
2023-05-24T03:17:14.279Z,12.77
2023-05-24T03:19:42.185Z,12.10
2023-05-24T03:22:10.485Z,12.37
2023-05-24T03:24:39.176Z,12.18
2023-05-24T03:27:08.951Z,12.47
2023-05-24T03:29:36.515Z,12.12
2023-05-24T03:32:04.726Z,12.22
2023-05-24T03:34:32.757Z,12.11
2023-05-24T03:37:00.911Z,12.22
2023-05-24T03:39:29.129Z,12.36
2023-05-24T03:42:11.389Z,12.40
2023-05-24T03:44:42.746Z,11.88
2023-05-24T03:47:13.753Z,12.55
2023-05-24T03:49:41.512Z,12.87
2023-05-24T03:52:09.598Z,12.78
2023-05-24T03:54:37.530Z,12.62
2023-05-24T03:57:06.734Z,12.52
2023-05-24T03:59:41.524Z,12.44
2023-05-24T04:02:09.673Z,12.02
2023-05-24T04:04:37.951Z,11.97
2023-05-24T04:07:06.184Z,12.00
2023-05-24T04:09:33.969Z,11.83
2023-05-24T04:12:03.779Z,12.04
2023-05-24T04:14:31.575Z,12.04
2023-05-24T04:17:02.408Z,12.31
2023-05-24T04:19:30.318Z,12.27
2023-05-24T04:21:58.340Z,12.21
2023-05-24T04:24:26.324Z,12.12
2023-05-24T04:26:54.308Z,12.09
2023-05-24T04:29:22.428Z,11.44
2023-05-24T04:31:51.394Z,11.86
2023-05-24T04:34:22.435Z,12.35
2023-05-24T04:36:53.240Z,12.11
2023-05-24T04:39:21.820Z,11.71
2023-05-24T04:41:51.044Z,11.28
2023-05-24T04:44:18.884Z,11.38
2023-05-24T04:46:46.803Z,11.80
2023-05-24T04:49:16.117Z,11.85
2023-05-24T04:51:45.973Z,11.97
2023-05-24T04:54:13.885Z,11.94
2023-05-24T04:56:41.949Z,11.84
2023-05-24T04:59:10.631Z,12.08
2023-05-24T05:01:38.794Z,12.71
2023-05-24T05:04:07.625Z,12.93
2023-05-24T05:06:39.013Z,12.85
2023-05-24T05:09:10.595Z,12.33
2023-05-24T05:11:39.158Z,12.24
2023-05-24T05:14:09.936Z,12.45
2023-05-24T05:16:39.547Z,12.88
2023-05-24T05:19:07.646Z,12.42
2023-05-24T05:21:36.444Z,12.46
2023-05-24T05:24:04.702Z,12.73
2023-05-24T05:26:34.681Z,12.32
2023-05-24T05:29:04.683Z,12.63
2023-05-24T05:31:33.236Z,12.72
2023-05-24T05:34:02.161Z,12.97
2023-05-24T05:36:30.077Z,14.14
2023-05-24T05:38:58.018Z,12.83
2023-05-24T05:41:26.480Z,13.16
2023-05-24T05:43:56.689Z,13.86
2023-05-24T05:46:24.829Z,14.40
2023-05-24T05:48:52.660Z,13.75
2023-05-24T05:51:20.573Z,14.35
2023-05-24T05:53:48.866Z,14.02
2023-05-24T05:56:17.060Z,13.42
2023-05-24T05:58:45.078Z,13.55
2023-05-24T06:01:17.169Z,13.74
2023-05-24T06:03:46.107Z,13.87
2023-05-24T06:06:14.625Z,13.74
2023-05-24T06:08:42.501Z,14.69
2023-05-24T06:11:10.521Z,13.76
2023-05-24T06:13:38.397Z,13.43
2023-05-24T06:16:08.550Z,13.76
2023-05-24T06:18:38.897Z,13.07
2023-05-24T06:21:32.549Z,12.87
2023-05-24T06:24:10.361Z,14.05
2023-05-24T06:26:38.319Z,14.46
2023-05-24T06:29:07.546Z,13.57
2023-05-24T06:31:35.638Z,13.62
2023-05-24T06:34:05.078Z,13.84
2023-05-24T06:36:34.225Z,13.47
2023-05-24T06:39:02.536Z,13.16
2023-05-24T06:41:30.600Z,12.90
2023-05-24T06:43:59.732Z,13.86
2023-05-24T06:46:28.636Z,14.59
2023-05-24T06:48:57.736Z,15.04
2023-05-24T06:51:27.215Z,13.99
2023-05-24T06:53:55.448Z,14.52
2023-05-24T06:56:25.811Z,15.14
2023-05-24T06:58:54.467Z,15.55
2023-05-24T07:01:23.695Z,14.39
2023-05-24T07:03:53.226Z,14.82
2023-05-24T07:06:22.162Z,15.22
2023-05-24T07:08:51.423Z,15.01
2023-05-24T07:11:19.597Z,13.84
2023-05-24T07:13:47.624Z,14.78
2023-05-24T07:16:16.700Z,13.82
2023-05-24T07:18:44.674Z,13.80
2023-05-24T07:21:15.141Z,13.91
2023-05-24T07:23:43.086Z,14.36
2023-05-24T07:26:12.749Z,14.92
2023-05-24T07:28:41.633Z,14.68
2023-05-24T07:31:10.310Z,14.83
2023-05-24T07:33:38.798Z,15.42
2023-05-24T07:36:07.650Z,14.78
2023-05-24T07:38:36.288Z,15.09
2023-05-24T07:41:04.783Z,16.28
2023-05-24T07:43:34.188Z,16.59
2023-05-24T07:46:01.996Z,16.07
2023-05-24T07:48:30.605Z,15.60
2023-05-24T07:50:58.703Z,15.51
2023-05-24T07:53:26.580Z,16.10
2023-05-24T07:55:54.413Z,17.27
2023-05-24T07:58:22.448Z,18.17
2023-05-24T08:00:52.413Z,17.95
2023-05-24T08:03:20.793Z,18.02
2023-05-24T08:05:50.088Z,19.96
2023-05-24T08:08:18.463Z,19.07
2023-05-24T08:10:46.200Z,16.90
2023-05-24T08:13:14.310Z,17.51
2023-05-24T08:15:42.477Z,17.45
2023-05-24T08:18:12.130Z,18.42
2023-05-24T08:20:41.132Z,17.11
2023-05-24T08:23:09.159Z,15.76
2023-05-24T08:25:36.990Z,15.37
2023-05-24T08:28:05.363Z,14.61
2023-05-24T08:30:33.711Z,14.39
2023-05-24T08:33:02.115Z,14.50
2023-05-24T08:35:32.864Z,15.57
2023-05-24T08:38:01.079Z,15.67
2023-05-24T08:40:29.220Z,15.26
2023-05-24T08:43:00.565Z,15.22
2023-05-24T08:45:31.600Z,17.04
2023-05-24T08:48:01.092Z,16.93
2023-05-24T08:50:29.933Z,17.01
2023-05-24T08:53:00.890Z,17.87
2023-05-24T08:55:33.075Z,19.08
2023-05-24T08:58:02.821Z,20.09
2023-05-24T09:00:30.783Z,18.84
2023-05-24T09:03:00.475Z,16.95
2023-05-24T09:05:30.504Z,16.54
2023-05-24T09:08:01.105Z,16.00
2023-05-24T09:10:41.164Z,16.43
2023-05-24T09:13:16.377Z,15.25
2023-05-24T09:15:44.653Z,15.82
2023-05-24T09:18:12.802Z,16.49
2023-05-24T09:20:41.276Z,16.01
2023-05-24T09:23:22.105Z,15.87
2023-05-24T09:25:50.489Z,15.76
2023-05-24T09:28:19.084Z,16.12
2023-05-24T09:30:50.402Z,15.63
2023-05-24T09:33:18.264Z,16.73
2023-05-24T09:35:47.422Z,17.17
2023-05-24T09:38:20.433Z,17.05
2023-05-24T09:40:48.778Z,17.49
2023-05-24T09:43:16.912Z,18.01
2023-05-24T09:45:46.766Z,18.55
2023-05-24T09:48:16.591Z,18.24
2023-05-24T09:50:45.937Z,17.96
2023-05-24T09:53:14.077Z,17.34
2023-05-24T09:55:45.704Z,17.68
2023-05-24T09:58:15.288Z,18.03
2023-05-24T10:00:43.767Z,19.03
2023-05-24T10:03:13.299Z,19.74
2023-05-24T10:05:43.606Z,18.27
2023-05-24T10:08:14.841Z,18.87
2023-05-24T10:10:45.342Z,17.79
2023-05-24T10:13:16.040Z,18.52
2023-05-24T10:15:44.787Z,18.04
2023-05-24T10:18:14.375Z,19.44
2023-05-24T10:20:44.090Z,17.03
2023-05-24T10:23:19.362Z,17.68
2023-05-24T10:25:51.580Z,18.97
2023-05-24T10:28:21.553Z,19.07
2023-05-24T10:30:52.819Z,17.74
2023-05-24T10:33:21.362Z,18.82
2023-05-24T10:35:50.372Z,19.78
2023-05-24T10:38:18.843Z,18.16
2023-05-24T10:40:50.321Z,18.70
2023-05-24T10:43:19.312Z,19.78
2023-05-24T10:51:51.051Z,17.92
2023-05-24T10:54:29.049Z,19.32
2023-05-24T11:03:32.680Z,19.67
2023-05-24T11:08:49.174Z,20.22
2023-05-24T11:28:39.352Z,23.84
2023-05-24T11:32:06.643Z,25.55
2023-05-24T11:35:08.690Z,27.57
2023-05-24T11:37:47.805Z,24.57
2023-05-24T11:40:25.601Z,25.87
2023-05-24T11:43:32.851Z,23.51
2023-05-24T11:46:07.440Z,26.38
2023-05-24T11:54:31.513Z,26.63
2023-05-24T12:02:46.774Z,31.16
2023-05-24T12:05:38.886Z,25.97
2023-05-24T12:08:27.869Z,28.21
2023-05-24T12:11:13.843Z,25.52
2023-05-24T12:19:38.246Z,29.05
2023-05-24T12:22:18.560Z,26.33
2023-05-24T12:25:03.090Z,28.05
2023-05-24T12:27:45.427Z,25.95
2023-05-24T12:30:25.465Z,24.38
2023-05-24T12:47:43.322Z,28.72
2023-05-24T12:50:15.559Z,26.83
2023-05-24T12:52:53.342Z,25.78
2023-05-24T12:58:27.700Z,24.16
2023-05-24T13:01:04.601Z,23.89
2023-05-24T13:14:52.064Z,23.69
2023-05-24T13:17:30.154Z,22.30
2023-05-24T13:20:04.801Z,26.48
2023-05-24T13:22:33.035Z,26.42
2023-05-24T13:28:09.702Z,23.11
2023-05-24T13:30:40.506Z,22.49
2023-05-24T13:33:11.660Z,20.69
2023-05-24T13:35:44.195Z,21.98
2023-05-24T13:38:20.369Z,23.21
2023-05-24T13:40:50.504Z,22.40
2023-05-24T13:43:36.144Z,22.89
2023-05-24T13:48:52.457Z,21.09
2023-05-24T13:51:30.978Z,20.55
2023-05-24T13:53:59.884Z,20.45
2023-05-24T13:56:41.711Z,20.79
2023-05-24T13:59:31.542Z,20.12
2023-05-24T14:02:07.351Z,20.43
2023-05-24T14:05:08.606Z,20.66
2023-05-24T14:07:47.772Z,22.95
2023-05-24T14:14:13.832Z,20.45
2023-05-24T14:19:23.829Z,23.97
2023-05-24T14:21:59.804Z,23.67
2023-05-24T14:24:31.747Z,25.43
2023-05-24T14:27:18.020Z,23.09
2023-05-24T14:30:23.921Z,21.80
2023-05-24T14:33:23.881Z,21.46
2023-05-24T14:41:29.052Z,28.53
2023-05-24T14:44:04.164Z,26.44
2023-05-24T14:46:34.811Z,27.10
2023-05-24T14:49:16.257Z,26.60
2023-05-24T15:01:25.000Z,24.27
2023-05-24T15:04:22.157Z,24.91
2023-05-24T15:09:43.794Z,28.90
2023-05-24T15:12:23.961Z,26.73
2023-05-24T15:20:26.577Z,23.83
2023-05-24T15:31:45.193Z,20.01
2023-05-24T15:34:23.436Z,20.08
2023-05-24T15:40:37.162Z,19.44
2023-05-24T15:54:47.343Z,19.67
2023-05-24T15:57:30.085Z,19.38
2023-05-24T16:17:50.070Z,20.06
2023-05-24T16:20:27.784Z,20.13
2023-05-24T16:25:48.186Z,20.55
2023-05-24T16:28:17.288Z,21.11
2023-05-24T16:30:59.756Z,21.95
2023-05-24T16:37:02.518Z,20.82
2023-05-24T16:42:27.716Z,20.22
2023-05-24T16:44:57.357Z,19.93
2023-05-24T16:47:29.592Z,19.83
2023-05-24T16:53:25.249Z,19.52
2023-05-24T16:59:04.203Z,18.96
2023-05-24T17:01:35.475Z,19.27
2023-05-24T17:04:06.471Z,19.00
2023-05-24T17:06:39.734Z,18.69
2023-05-24T17:09:09.257Z,19.37
2023-05-24T17:11:42.174Z,18.98
2023-05-24T17:14:10.857Z,19.20
2023-05-24T17:16:45.531Z,19.33
2023-05-24T17:19:16.653Z,20.19
2023-05-24T17:21:48.469Z,21.47
2023-05-24T17:24:18.253Z,21.90
2023-05-24T17:26:46.692Z,22.15
2023-05-24T17:29:15.414Z,20.31
2023-05-24T17:31:45.447Z,19.34
2023-05-24T17:34:15.105Z,19.03
2023-05-24T17:36:44.110Z,19.88
2023-05-24T17:39:17.876Z,20.10
2023-05-24T17:41:47.383Z,20.07
2023-05-24T17:44:19.662Z,20.78
2023-05-24T17:46:51.770Z,21.00
2023-05-24T17:49:21.842Z,21.05
2023-05-24T17:51:53.990Z,21.26
2023-05-24T17:54:28.287Z,21.49
2023-05-24T17:57:12.305Z,20.39
2023-05-24T17:59:45.266Z,20.94
2023-05-24T18:02:18.966Z,20.54
2023-05-24T18:04:50.953Z,19.84
2023-05-24T18:07:19.760Z,19.99
2023-05-24T18:09:51.838Z,19.81
2023-05-24T18:12:21.919Z,19.10
2023-05-24T18:14:52.103Z,20.29
2023-05-24T18:17:30.176Z,20.91
2023-05-24T18:20:00.611Z,21.06
2023-05-24T18:22:33.295Z,20.91
2023-05-24T18:25:04.825Z,20.38
2023-05-24T18:27:36.139Z,20.67
2023-05-24T18:30:09.025Z,20.31
2023-05-24T18:32:52.096Z,20.24
2023-05-24T18:35:29.762Z,19.66
2023-05-24T18:37:58.155Z,19.32
2023-05-24T18:40:31.945Z,19.13
2023-05-24T18:43:01.606Z,19.01
2023-05-24T18:45:33.753Z,19.57
2023-05-24T18:48:04.435Z,18.86
2023-05-24T18:50:34.951Z,19.02
2023-05-24T18:53:07.512Z,19.06
2023-05-24T18:55:41.048Z,18.80
2023-05-24T18:58:11.395Z,18.20
2023-05-24T19:00:46.718Z,17.91
2023-05-24T19:03:17.081Z,17.89
2023-05-24T19:05:45.745Z,17.46
2023-05-24T19:08:15.143Z,17.47
2023-05-24T19:11:00.138Z,17.40
2023-05-24T19:13:29.672Z,17.50
2023-05-24T19:16:04.786Z,17.47
2023-05-24T19:18:33.164Z,16.94
2023-05-24T19:21:10.469Z,16.35
2023-05-24T19:26:37.785Z,15.97
2023-05-24T19:29:14.362Z,15.99
2023-05-24T19:31:55.206Z,16.13
2023-05-24T19:34:35.314Z,16.10
2023-05-24T19:37:11.124Z,16.10
2023-05-24T19:39:41.805Z,16.06
2023-05-24T19:42:20.085Z,16.01
2023-05-24T19:47:44.841Z,15.75
2023-05-24T19:50:17.730Z,15.83
2023-05-24T19:52:46.482Z,15.89
2023-05-24T19:55:18.790Z,15.65
2023-05-24T19:57:51.594Z,15.57
2023-05-24T20:00:22.971Z,15.66
2023-05-24T20:02:59.269Z,15.63
2023-05-24T20:08:36.250Z,15.74
2023-05-24T20:11:09.039Z,15.72
2023-05-24T20:14:02.492Z,15.30
2023-05-24T20:17:01.528Z,15.43
2023-05-24T20:22:19.660Z,15.17
2023-05-24T20:25:03.028Z,15.12
2023-05-24T20:27:31.976Z,14.87
2023-05-24T20:30:06.895Z,14.90
2023-05-24T20:32:38.054Z,14.98
2023-05-24T20:35:11.452Z,14.81
2023-05-24T20:37:43.784Z,14.77
2023-05-24T20:40:16.003Z,15.14
2023-05-24T20:42:44.221Z,14.65
2023-05-24T20:45:18.340Z,14.75
2023-05-24T20:47:48.455Z,14.60
2023-05-24T20:56:18.696Z,14.49
2023-05-24T20:58:53.352Z,14.30
2023-05-24T21:01:24.818Z,14.26
2023-05-24T21:03:53.186Z,14.16
2023-05-24T21:06:46.815Z,14.34
2023-05-24T21:09:17.401Z,14.11
2023-05-24T21:11:47.181Z,14.16
2023-05-24T21:14:17.128Z,14.19
2023-05-24T21:16:49.641Z,13.97
2023-05-24T21:19:18.274Z,13.86
2023-05-24T21:21:47.868Z,13.72
2023-05-24T21:24:18.586Z,13.73
2023-05-24T21:26:46.733Z,13.78
2023-05-24T21:29:15.904Z,13.89
2023-05-24T21:31:43.924Z,13.84
2023-05-24T21:34:13.480Z,13.58
2023-05-24T21:36:41.675Z,13.71
2023-05-24T21:39:09.969Z,13.71
2023-05-24T21:41:41.776Z,13.65
2023-05-24T21:44:12.221Z,13.52
2023-05-24T21:46:46.783Z,13.37
2023-05-24T21:49:17.211Z,13.42
2023-05-24T21:51:47.577Z,13.30
2023-05-24T21:54:19.564Z,13.52
2023-05-24T21:56:55.570Z,13.43
2023-05-24T21:59:24.829Z,13.25
2023-05-24T22:01:53.021Z,13.35
2023-05-24T22:04:26.029Z,13.49
2023-05-24T22:06:55.244Z,13.34
2023-05-24T22:09:25.745Z,13.57
2023-05-24T22:11:53.905Z,13.44
2023-05-24T22:14:32.781Z,13.23
2023-05-24T22:17:01.012Z,12.98
2023-05-24T22:19:39.465Z,12.99
2023-05-24T22:22:07.774Z,13.09
2023-05-24T22:24:36.061Z,12.95
2023-05-24T22:27:04.781Z,13.06
2023-05-24T22:29:32.990Z,12.94
2023-05-24T22:32:01.642Z,12.92
2023-05-24T22:34:31.309Z,12.87
2023-05-24T22:37:00.250Z,12.98
2023-05-24T22:39:32.500Z,12.88
2023-05-24T22:42:01.845Z,12.79
2023-05-24T22:44:29.875Z,12.74
2023-05-24T22:47:02.502Z,12.91
2023-05-24T22:49:34.546Z,12.95
2023-05-24T22:52:03.498Z,12.81
2023-05-24T22:54:32.840Z,12.88
2023-05-24T22:57:02.830Z,12.75
2023-05-24T22:59:32.673Z,12.77
2023-05-24T23:02:01.200Z,12.92
2023-05-24T23:04:30.330Z,12.75
2023-05-24T23:07:00.121Z,12.71
2023-05-24T23:09:34.596Z,12.78
2023-05-24T23:12:10.552Z,12.66
2023-05-24T23:14:48.850Z,12.48
2023-05-24T23:17:20.496Z,12.49
2023-05-24T23:19:50.646Z,12.35
2023-05-24T23:22:20.494Z,12.31
2023-05-24T23:24:50.270Z,12.38
2023-05-24T23:27:19.516Z,12.13
2023-05-24T23:29:48.326Z,12.22
2023-05-24T23:32:16.600Z,12.13
2023-05-24T23:34:47.296Z,12.20
2023-05-24T23:37:17.195Z,12.33
2023-05-24T23:39:47.254Z,12.21
2023-05-24T23:42:15.644Z,12.21
2023-05-24T23:44:43.759Z,12.18
2023-05-24T23:47:12.702Z,12.12
2023-05-24T23:49:41.971Z,12.27
2023-05-24T23:52:10.762Z,12.11
2023-05-24T23:54:40.120Z,12.00
2023-05-24T23:57:09.719Z,11.93
2023-05-24T23:59:37.584Z,12.03
